sensor_id;sensor_type;location;lat;lon;timestamp;P1;durP1;ratioP1;P2;durP2;ratioP2
32788;SDS011;19141;48.980;8.410;2023-07-09T04:22:32;6.07;;;3.38;;
32788;SDS011;19141;48.980;8.410;2023-07-09T04:24:59;5.38;;;3.22;;
32788;SDS011;19141;48.980;8.410;2023-07-09T04:27:24;4.95;;;3.20;;
32788;SDS011;19141;48.980;8.410;2023-07-09T04:29:52;5.22;;;4.07;;
32788;SDS011;19141;48.980;8.410;2023-07-09T04:32:18;5.50;;;2.90;;
32788;SDS011;19141;48.980;8.410;2023-07-09T04:34:44;4.35;;;3.03;;
32788;SDS011;19141;48.980;8.410;2023-07-09T04:37:10;3.88;;;2.78;;
32788;SDS011;19141;48.980;8.410;2023-07-09T04:39:37;4.40;;;3.17;;
32788;SDS011;19141;48.980;8.410;2023-07-09T04:42:03;3.92;;;3.17;;
32788;SDS011;19141;48.980;8.410;2023-07-09T04:44:30;4.33;;;2.93;;
32788;SDS011;19141;48.980;8.410;2023-07-09T04:46:55;6.15;;;3.05;;
32788;SDS011;19141;48.980;8.410;2023-07-09T04:49:21;5.50;;;3.72;;
32788;SDS011;19141;48.980;8.410;2023-07-09T04:51:46;5.20;;;2.90;;
32788;SDS011;19141;48.980;8.410;2023-07-09T04:54:11;4.35;;;3.47;;
32788;SDS011;19141;48.980;8.410;2023-07-09T04:56:40;4.82;;;2.75;;
32788;SDS011;19141;48.980;8.410;2023-07-09T04:59:09;6.00;;;3.17;;
32788;SDS011;19141;48.980;8.410;2023-07-09T05:01:34;4.40;;;2.70;;
32788;SDS011;19141;48.980;8.410;2023-07-09T05:04:00;4.45;;;2.92;;
32788;SDS011;19141;48.980;8.410;2023-07-09T05:06:25;5.15;;;3.83;;
32788;SDS011;19141;48.980;8.410;2023-07-09T05:08:50;4.50;;;3.65;;
32788;SDS011;19141;48.980;8.410;2023-07-09T05:11:16;6.65;;;4.35;;
32788;SDS011;19141;48.980;8.410;2023-07-09T05:13:41;5.03;;;3.40;;
32788;SDS011;19141;48.980;8.410;2023-07-09T05:16:07;5.15;;;3.78;;
32788;SDS011;19141;48.980;8.410;2023-07-09T05:18:32;5.15;;;2.90;;
32788;SDS011;19141;48.980;8.410;2023-07-09T05:20:57;5.07;;;2.83;;
32788;SDS011;19141;48.980;8.410;2023-07-09T05:23:26;5.20;;;3.08;;
32788;SDS011;19141;48.980;8.410;2023-07-09T05:25:58;4.80;;;3.10;;
32788;SDS011;19141;48.980;8.410;2023-07-09T05:28:25;4.30;;;3.05;;
32788;SDS011;19141;48.980;8.410;2023-07-09T05:30:50;3.83;;;3.00;;
32788;SDS011;19141;48.980;8.410;2023-07-09T05:33:17;4.97;;;2.97;;
32788;SDS011;19141;48.980;8.410;2023-07-09T05:35:43;5.97;;;3.38;;
32788;SDS011;19141;48.980;8.410;2023-07-09T05:38:09;3.67;;;2.70;;
32788;SDS011;19141;48.980;8.410;2023-07-09T05:40:34;3.67;;;2.75;;
32788;SDS011;19141;48.980;8.410;2023-07-09T05:43:00;4.47;;;2.78;;
32788;SDS011;19141;48.980;8.410;2023-07-09T05:45:25;4.65;;;2.88;;
32788;SDS011;19141;48.980;8.410;2023-07-09T05:47:50;5.55;;;3.20;;
32788;SDS011;19141;48.980;8.410;2023-07-09T05:50:16;4.20;;;2.85;;
32788;SDS011;19141;48.980;8.410;2023-07-09T05:52:41;5.32;;;2.95;;
32788;SDS011;19141;48.980;8.410;2023-07-09T05:55:07;4.75;;;2.65;;
32788;SDS011;19141;48.980;8.410;2023-07-09T05:57:32;4.18;;;2.50;;
32788;SDS011;19141;48.980;8.410;2023-07-09T05:59:58;3.70;;;2.70;;
32788;SDS011;19141;48.980;8.410;2023-07-09T06:02:23;3.22;;;2.35;;
32788;SDS011;19141;48.980;8.410;2023-07-09T06:04:48;5.07;;;2.78;;
32788;SDS011;19141;48.980;8.410;2023-07-09T06:07:15;5.05;;;2.72;;
32788;SDS011;19141;48.980;8.410;2023-07-09T06:09:41;3.23;;;2.50;;
32788;SDS011;19141;48.980;8.410;2023-07-09T06:12:07;3.78;;;2.55;;
32788;SDS011;19141;48.980;8.410;2023-07-09T06:14:33;3.70;;;2.38;;
32788;SDS011;19141;48.980;8.410;2023-07-09T06:16:59;4.55;;;2.65;;
32788;SDS011;19141;48.980;8.410;2023-07-09T06:19:25;2.83;;;2.40;;
32788;SDS011;19141;48.980;8.410;2023-07-09T06:21:51;3.42;;;2.30;;
32788;SDS011;19141;48.980;8.410;2023-07-09T06:24:16;3.72;;;2.45;;
32788;SDS011;19141;48.980;8.410;2023-07-09T06:26:41;4.80;;;2.97;;
32788;SDS011;19141;48.980;8.410;2023-07-09T06:29:07;5.53;;;2.75;;
32788;SDS011;19141;48.980;8.410;2023-07-09T06:31:32;6.13;;;3.55;;
32788;SDS011;19141;48.980;8.410;2023-07-09T06:33:58;4.22;;;3.15;;
32788;SDS011;19141;48.980;8.410;2023-07-09T06:36:23;3.10;;;2.70;;
32788;SDS011;19141;48.980;8.410;2023-07-09T06:38:49;4.38;;;2.55;;
32788;SDS011;19141;48.980;8.410;2023-07-09T06:41:14;3.92;;;2.60;;
32788;SDS011;19141;48.980;8.410;2023-07-09T06:43:40;3.42;;;2.47;;
32788;SDS011;19141;48.980;8.410;2023-07-09T06:46:07;4.50;;;2.58;;
32788;SDS011;19141;48.980;8.410;2023-07-09T06:48:35;2.97;;;2.35;;
32788;SDS011;19141;48.980;8.410;2023-07-09T06:51:00;2.90;;;2.35;;
32788;SDS011;19141;48.980;8.410;2023-07-09T06:53:26;3.45;;;2.55;;
32788;SDS011;19141;48.980;8.410;2023-07-09T06:55:52;3.05;;;2.53;;
32788;SDS011;19141;48.980;8.410;2023-07-09T06:58:20;4.88;;;2.53;;
32788;SDS011;19141;48.980;8.410;2023-07-09T07:00:48;4.57;;;3.00;;
32788;SDS011;19141;48.980;8.410;2023-07-09T07:05:43;4.97;;;2.63;;
32788;SDS011;19141;48.980;8.410;2023-07-09T07:08:14;3.33;;;2.50;;
32788;SDS011;19141;48.980;8.410;2023-07-09T07:10:41;3.47;;;2.80;;
32788;SDS011;19141;48.980;8.410;2023-07-09T07:13:07;4.53;;;2.33;;
32788;SDS011;19141;48.980;8.410;2023-07-09T07:15:34;5.03;;;2.50;;
32788;SDS011;19141;48.980;8.410;2023-07-09T07:18:02;3.80;;;2.45;;
32788;SDS011;19141;48.980;8.410;2023-07-09T07:20:29;3.95;;;2.67;;
32788;SDS011;19141;48.980;8.410;2023-07-09T07:22:55;3.60;;;2.90;;
32788;SDS011;19141;48.980;8.410;2023-07-09T07:25:21;3.17;;;2.40;;
32788;SDS011;19141;48.980;8.410;2023-07-09T07:27:47;3.33;;;2.35;;
32788;SDS011;19141;48.980;8.410;2023-07-09T07:30:12;6.75;;;2.58;;
32788;SDS011;19141;48.980;8.410;2023-07-09T07:32:39;3.20;;;2.20;;
32788;SDS011;19141;48.980;8.410;2023-07-09T07:35:08;4.22;;;2.47;;
32788;SDS011;19141;48.980;8.410;2023-07-09T07:37:34;2.70;;;2.28;;
32788;SDS011;19141;48.980;8.410;2023-07-09T07:39:59;4.60;;;2.47;;
32788;SDS011;19141;48.980;8.410;2023-07-09T07:42:25;3.80;;;2.13;;
32788;SDS011;19141;48.980;8.410;2023-07-09T07:44:50;4.18;;;2.58;;
32788;SDS011;19141;48.980;8.410;2023-07-09T07:47:17;3.80;;;2.50;;
32788;SDS011;19141;48.980;8.410;2023-07-09T07:49:43;3.42;;;2.28;;
32788;SDS011;19141;48.980;8.410;2023-07-09T07:52:08;3.70;;;2.70;;
32788;SDS011;19141;48.980;8.410;2023-07-09T07:54:35;3.10;;;2.20;;
32788;SDS011;19141;48.980;8.410;2023-07-09T07:57:00;4.10;;;2.60;;
32788;SDS011;19141;48.980;8.410;2023-07-09T07:59:26;3.00;;;2.35;;
32788;SDS011;19141;48.980;8.410;2023-07-09T08:01:52;4.25;;;2.63;;
32788;SDS011;19141;48.980;8.410;2023-07-09T08:04:18;2.47;;;2.28;;
32788;SDS011;19141;48.980;8.410;2023-07-09T08:06:43;3.05;;;2.38;;
32788;SDS011;19141;48.980;8.410;2023-07-09T08:09:08;6.13;;;2.47;;
32788;SDS011;19141;48.980;8.410;2023-07-09T08:11:34;2.80;;;2.00;;
32788;SDS011;19141;48.980;8.410;2023-07-09T08:14:00;2.75;;;2.42;;
32788;SDS011;19141;48.980;8.410;2023-07-09T08:16:25;3.72;;;2.50;;
32788;SDS011;19141;48.980;8.410;2023-07-09T08:18:51;3.50;;;2.45;;
32788;SDS011;19141;48.980;8.410;2023-07-09T08:21:17;2.97;;;2.45;;
32788;SDS011;19141;48.980;8.410;2023-07-09T08:23:43;4.82;;;2.50;;
32788;SDS011;19141;48.980;8.410;2023-07-09T08:26:09;4.07;;;2.47;;
32788;SDS011;19141;48.980;8.410;2023-07-09T08:28:35;3.17;;;2.10;;
32788;SDS011;19141;48.980;8.410;2023-07-09T08:31:00;4.50;;;2.40;;
32788;SDS011;19141;48.980;8.410;2023-07-09T08:33:26;3.05;;;2.17;;
32788;SDS011;19141;48.980;8.410;2023-07-09T08:35:52;2.92;;;2.42;;
32788;SDS011;19141;48.980;8.410;2023-07-09T08:38:18;3.63;;;2.05;;
32788;SDS011;19141;48.980;8.410;2023-07-09T08:44:00;3.95;;;2.35;;
32788;SDS011;19141;48.980;8.410;2023-07-09T08:49:15;4.55;;;2.55;;
32788;SDS011;19141;48.980;8.410;2023-07-09T08:51:46;4.38;;;2.45;;
32788;SDS011;19141;48.980;8.410;2023-07-09T08:54:25;4.40;;;2.60;;
32788;SDS011;19141;48.980;8.410;2023-07-09T08:56:53;3.17;;;2.42;;
32788;SDS011;19141;48.980;8.410;2023-07-09T08:59:21;3.00;;;2.13;;
32788;SDS011;19141;48.980;8.410;2023-07-09T09:01:51;3.55;;;2.13;;
32788;SDS011;19141;48.980;8.410;2023-07-09T09:04:30;4.22;;;2.47;;
32788;SDS011;19141;48.980;8.410;2023-07-09T09:07:02;5.00;;;2.75;;
32788;SDS011;19141;48.980;8.410;2023-07-09T09:09:37;3.92;;;2.53;;
32788;SDS011;19141;48.980;8.410;2023-07-09T09:12:12;3.72;;;2.65;;
32788;SDS011;19141;48.980;8.410;2023-07-09T09:14:42;3.08;;;2.38;;
32788;SDS011;19141;48.980;8.410;2023-07-09T09:17:19;3.75;;;2.80;;
32788;SDS011;19141;48.980;8.410;2023-07-09T09:19:50;3.38;;;2.15;;
32788;SDS011;19141;48.980;8.410;2023-07-09T09:22:28;3.55;;;2.58;;
32788;SDS011;19141;48.980;8.410;2023-07-09T09:25:05;3.25;;;2.25;;
32788;SDS011;19141;48.980;8.410;2023-07-09T09:27:43;3.50;;;2.45;;
32788;SDS011;19141;48.980;8.410;2023-07-09T09:30:13;4.30;;;2.60;;
32788;SDS011;19141;48.980;8.410;2023-07-09T09:32:48;3.83;;;2.67;;
32788;SDS011;19141;48.980;8.410;2023-07-09T09:35:20;4.50;;;2.53;;
32788;SDS011;19141;48.980;8.410;2023-07-09T09:37:51;4.43;;;2.78;;
32788;SDS011;19141;48.980;8.410;2023-07-09T09:40:21;3.92;;;2.47;;
32788;SDS011;19141;48.980;8.410;2023-07-09T09:42:52;3.55;;;2.60;;
32788;SDS011;19141;48.980;8.410;2023-07-09T09:45:21;4.47;;;2.90;;
32788;SDS011;19141;48.980;8.410;2023-07-09T09:47:52;4.28;;;2.78;;
32788;SDS011;19141;48.980;8.410;2023-07-09T09:50:19;6.17;;;2.90;;
32788;SDS011;19141;48.980;8.410;2023-07-09T09:52:46;4.78;;;2.50;;
32788;SDS011;19141;48.980;8.410;2023-07-09T09:55:23;4.40;;;2.80;;
32788;SDS011;19141;48.980;8.410;2023-07-09T09:57:54;6.05;;;2.80;;
32788;SDS011;19141;48.980;8.410;2023-07-09T10:00:22;3.40;;;2.55;;
32788;SDS011;19141;48.980;8.410;2023-07-09T10:02:50;3.35;;;2.40;;
32788;SDS011;19141;48.980;8.410;2023-07-09T10:05:16;4.20;;;2.70;;
32788;SDS011;19141;48.980;8.410;2023-07-09T10:08:03;5.60;;;2.70;;
32788;SDS011;19141;48.980;8.410;2023-07-09T10:10:34;4.70;;;2.58;;
32788;SDS011;19141;48.980;8.410;2023-07-09T10:15:42;4.10;;;2.78;;
32788;SDS011;19141;48.980;8.410;2023-07-09T10:21:05;3.67;;;2.30;;
32788;SDS011;19141;48.980;8.410;2023-07-09T10:26:51;4.10;;;2.92;;
32788;SDS011;19141;48.980;8.410;2023-07-09T10:29:28;3.50;;;2.20;;
32788;SDS011;19141;48.980;8.410;2023-07-09T10:32:18;3.00;;;2.42;;
32788;SDS011;19141;48.980;8.410;2023-07-09T10:34:57;6.30;;;2.83;;
32788;SDS011;19141;48.980;8.410;2023-07-09T10:40:12;4.75;;;2.28;;
32788;SDS011;19141;48.980;8.410;2023-07-09T10:42:45;3.80;;;2.55;;
32788;SDS011;19141;48.980;8.410;2023-07-09T10:45:16;4.30;;;2.63;;
32788;SDS011;19141;48.980;8.410;2023-07-09T10:47:48;4.20;;;2.40;;
32788;SDS011;19141;48.980;8.410;2023-07-09T10:50:41;3.20;;;2.05;;
32788;SDS011;19141;48.980;8.410;2023-07-09T10:53:09;3.05;;;2.08;;
32788;SDS011;19141;48.980;8.410;2023-07-09T10:56:00;4.03;;;2.33;;
32788;SDS011;19141;48.980;8.410;2023-07-09T10:58:33;4.22;;;2.92;;
32788;SDS011;19141;48.980;8.410;2023-07-09T11:01:02;3.30;;;2.03;;
32788;SDS011;19141;48.980;8.410;2023-07-09T11:06:19;4.82;;;2.40;;
32788;SDS011;19141;48.980;8.410;2023-07-09T11:08:48;7.18;;;2.20;;
32788;SDS011;19141;48.980;8.410;2023-07-09T11:11:21;3.70;;;2.55;;
32788;SDS011;19141;48.980;8.410;2023-07-09T11:13:55;4.45;;;2.60;;
32788;SDS011;19141;48.980;8.410;2023-07-09T11:16:28;3.28;;;2.40;;
32788;SDS011;19141;48.980;8.410;2023-07-09T11:19:02;4.00;;;2.30;;
32788;SDS011;19141;48.980;8.410;2023-07-09T11:21:30;5.82;;;2.80;;
32788;SDS011;19141;48.980;8.410;2023-07-09T11:23:59;4.15;;;2.78;;
32788;SDS011;19141;48.980;8.410;2023-07-09T11:26:26;4.13;;;2.50;;
32788;SDS011;19141;48.980;8.410;2023-07-09T11:28:55;3.20;;;2.35;;
32788;SDS011;19141;48.980;8.410;2023-07-09T11:31:35;4.10;;;2.65;;
32788;SDS011;19141;48.980;8.410;2023-07-09T11:34:10;4.13;;;2.58;;
32788;SDS011;19141;48.980;8.410;2023-07-09T11:36:47;4.70;;;2.35;;
32788;SDS011;19141;48.980;8.410;2023-07-09T11:39:47;3.88;;;2.60;;
32788;SDS011;19141;48.980;8.410;2023-07-09T11:47:37;5.30;;;3.00;;
32788;SDS011;19141;48.980;8.410;2023-07-09T11:50:28;6.05;;;2.50;;
32788;SDS011;19141;48.980;8.410;2023-07-09T11:53:02;3.13;;;2.05;;
32788;SDS011;19141;48.980;8.410;2023-07-09T11:55:39;4.07;;;2.20;;
32788;SDS011;19141;48.980;8.410;2023-07-09T11:58:07;3.72;;;2.08;;
32788;SDS011;19141;48.980;8.410;2023-07-09T12:00:39;6.32;;;2.40;;
32788;SDS011;19141;48.980;8.410;2023-07-09T12:03:07;5.43;;;2.15;;
32788;SDS011;19141;48.980;8.410;2023-07-09T12:05:39;4.47;;;2.47;;
32788;SDS011;19141;48.980;8.410;2023-07-09T12:08:12;5.15;;;2.70;;
32788;SDS011;19141;48.980;8.410;2023-07-09T12:10:40;4.40;;;2.30;;
32788;SDS011;19141;48.980;8.410;2023-07-09T12:13:10;4.90;;;2.45;;
32788;SDS011;19141;48.980;8.410;2023-07-09T12:15:38;7.57;;;2.65;;
32788;SDS011;19141;48.980;8.410;2023-07-09T12:18:12;4.63;;;2.70;;
32788;SDS011;19141;48.980;8.410;2023-07-09T12:20:39;4.95;;;2.80;;
32788;SDS011;19141;48.980;8.410;2023-07-09T12:23:39;4.38;;;2.78;;
32788;SDS011;19141;48.980;8.410;2023-07-09T12:26:01;4.78;;;2.33;;
32788;SDS011;19141;48.980;8.410;2023-07-09T12:28:28;5.55;;;2.78;;
32788;SDS011;19141;48.980;8.410;2023-07-09T12:30:55;4.95;;;2.55;;
32788;SDS011;19141;48.980;8.410;2023-07-09T12:35:50;7.00;;;2.70;;
32788;SDS011;19141;48.980;8.410;2023-07-09T12:38:21;4.00;;;2.20;;
32788;SDS011;19141;48.980;8.410;2023-07-09T12:40:49;6.40;;;2.75;;
32788;SDS011;19141;48.980;8.410;2023-07-09T12:43:21;5.07;;;2.67;;
32788;SDS011;19141;48.980;8.410;2023-07-09T12:45:50;4.90;;;2.60;;
32788;SDS011;19141;48.980;8.410;2023-07-09T12:48:24;6.38;;;3.05;;
32788;SDS011;19141;48.980;8.410;2023-07-09T12:50:52;5.15;;;2.78;;
32788;SDS011;19141;48.980;8.410;2023-07-09T12:53:20;5.25;;;2.70;;
32788;SDS011;19141;48.980;8.410;2023-07-09T12:55:51;5.50;;;2.78;;
32788;SDS011;19141;48.980;8.410;2023-07-09T12:58:23;4.68;;;2.58;;
32788;SDS011;19141;48.980;8.410;2023-07-09T13:00:50;5.22;;;2.20;;
32788;SDS011;19141;48.980;8.410;2023-07-09T13:03:18;6.10;;;2.60;;
32788;SDS011;19141;48.980;8.410;2023-07-09T13:05:58;4.95;;;2.40;;
32788;SDS011;19141;48.980;8.410;2023-07-09T13:08:26;5.45;;;3.08;;
32788;SDS011;19141;48.980;8.410;2023-07-09T13:10:53;4.70;;;2.67;;
32788;SDS011;19141;48.980;8.410;2023-07-09T13:13:20;6.22;;;2.90;;
32788;SDS011;19141;48.980;8.410;2023-07-09T13:18:24;6.97;;;3.10;;
32788;SDS011;19141;48.980;8.410;2023-07-09T13:20:50;5.82;;;3.20;;
32788;SDS011;19141;48.980;8.410;2023-07-09T13:23:26;5.15;;;3.13;;
32788;SDS011;19141;48.980;8.410;2023-07-09T13:25:54;4.32;;;2.58;;
32788;SDS011;19141;48.980;8.410;2023-07-09T13:28:24;7.03;;;2.38;;
32788;SDS011;19141;48.980;8.410;2023-07-09T13:30:53;5.53;;;2.42;;
32788;SDS011;19141;48.980;8.410;2023-07-09T13:33:21;5.75;;;2.40;;
32788;SDS011;19141;48.980;8.410;2023-07-09T13:35:47;4.10;;;2.60;;
32788;SDS011;19141;48.980;8.410;2023-07-09T13:38:17;6.57;;;2.75;;
32788;SDS011;19141;48.980;8.410;2023-07-09T13:40:45;4.80;;;2.72;;
32788;SDS011;19141;48.980;8.410;2023-07-09T13:43:17;7.38;;;3.72;;
32788;SDS011;19141;48.980;8.410;2023-07-09T13:45:46;4.60;;;3.05;;
32788;SDS011;19141;48.980;8.410;2023-07-09T13:48:15;3.60;;;2.78;;
32788;SDS011;19141;48.980;8.410;2023-07-09T13:50:44;6.43;;;3.17;;
32788;SDS011;19141;48.980;8.410;2023-07-09T13:53:16;6.30;;;3.03;;
32788;SDS011;19141;48.980;8.410;2023-07-09T13:55:47;5.72;;;3.08;;
32788;SDS011;19141;48.980;8.410;2023-07-09T13:58:15;4.72;;;3.00;;
32788;SDS011;19141;48.980;8.410;2023-07-09T14:00:45;5.15;;;3.03;;
32788;SDS011;19141;48.980;8.410;2023-07-09T14:03:17;4.72;;;2.83;;
32788;SDS011;19141;48.980;8.410;2023-07-09T14:05:46;4.88;;;3.20;;
32788;SDS011;19141;48.980;8.410;2023-07-09T14:08:12;6.78;;;3.42;;
32788;SDS011;19141;48.980;8.410;2023-07-09T14:10:38;3.78;;;2.60;;
32788;SDS011;19141;48.980;8.410;2023-07-09T14:13:04;3.92;;;2.95;;
32788;SDS011;19141;48.980;8.410;2023-07-09T14:15:30;6.88;;;3.22;;
32788;SDS011;19141;48.980;8.410;2023-07-09T14:17:55;10.10;;;3.17;;
32788;SDS011;19141;48.980;8.410;2023-07-09T14:20:24;4.53;;;3.20;;
32788;SDS011;19141;48.980;8.410;2023-07-09T14:22:50;6.50;;;3.30;;
32788;SDS011;19141;48.980;8.410;2023-07-09T14:25:23;4.80;;;3.03;;
32788;SDS011;19141;48.980;8.410;2023-07-09T14:27:50;5.30;;;2.88;;
32788;SDS011;19141;48.980;8.410;2023-07-09T14:30:18;4.40;;;3.10;;
32788;SDS011;19141;48.980;8.410;2023-07-09T14:32:46;5.18;;;2.75;;
32788;SDS011;19141;48.980;8.410;2023-07-09T14:35:22;8.38;;;3.67;;
32788;SDS011;19141;48.980;8.410;2023-07-09T14:37:49;5.05;;;2.85;;
32788;SDS011;19141;48.980;8.410;2023-07-09T14:40:17;7.43;;;3.25;;
32788;SDS011;19141;48.980;8.410;2023-07-09T14:42:45;4.93;;;3.00;;
32788;SDS011;19141;48.980;8.410;2023-07-09T14:45:22;6.25;;;3.03;;
32788;SDS011;19141;48.980;8.410;2023-07-09T14:47:50;7.90;;;3.20;;
32788;SDS011;19141;48.980;8.410;2023-07-09T14:50:17;5.28;;;3.50;;
32788;SDS011;19141;48.980;8.410;2023-07-09T14:55:13;7.10;;;3.55;;
32788;SDS011;19141;48.980;8.410;2023-07-09T14:57:43;4.93;;;2.85;;
32788;SDS011;19141;48.980;8.410;2023-07-09T15:02:40;3.88;;;2.80;;
32788;SDS011;19141;48.980;8.410;2023-07-09T15:05:12;4.53;;;2.97;;
32788;SDS011;19141;48.980;8.410;2023-07-09T15:07:46;5.45;;;2.92;;
32788;SDS011;19141;48.980;8.410;2023-07-09T15:10:12;4.57;;;3.13;;
32788;SDS011;19141;48.980;8.410;2023-07-09T15:12:41;7.63;;;3.72;;
32788;SDS011;19141;48.980;8.410;2023-07-09T15:15:30;5.90;;;3.58;;
32788;SDS011;19141;48.980;8.410;2023-07-09T15:17:55;5.47;;;2.78;;
32788;SDS011;19141;48.980;8.410;2023-07-09T15:20:25;5.88;;;2.90;;
32788;SDS011;19141;48.980;8.410;2023-07-09T15:22:52;7.45;;;3.85;;
32788;SDS011;19141;48.980;8.410;2023-07-09T15:25:21;7.65;;;3.78;;
32788;SDS011;19141;48.980;8.410;2023-07-09T15:27:48;7.15;;;4.65;;
32788;SDS011;19141;48.980;8.410;2023-07-09T15:30:21;7.28;;;4.30;;
32788;SDS011;19141;48.980;8.410;2023-07-09T15:32:48;8.50;;;3.35;;
32788;SDS011;19141;48.980;8.410;2023-07-09T15:35:15;5.70;;;3.08;;
32788;SDS011;19141;48.980;8.410;2023-07-09T15:37:42;6.63;;;3.67;;
32788;SDS011;19141;48.980;8.410;2023-07-09T15:40:21;7.90;;;4.50;;
32788;SDS011;19141;48.980;8.410;2023-07-09T15:42:49;7.47;;;2.92;;
32788;SDS011;19141;48.980;8.410;2023-07-09T15:45:20;5.75;;;3.20;;
32788;SDS011;19141;48.980;8.410;2023-07-09T15:47:46;6.15;;;3.10;;
32788;SDS011;19141;48.980;8.410;2023-07-09T15:50:25;6.68;;;2.85;;
32788;SDS011;19141;48.980;8.410;2023-07-09T15:52:52;6.40;;;3.20;;
32788;SDS011;19141;48.980;8.410;2023-07-09T15:57:45;5.15;;;3.17;;
32788;SDS011;19141;48.980;8.410;2023-07-09T16:00:14;7.55;;;4.40;;
32788;SDS011;19141;48.980;8.410;2023-07-09T16:02:41;9.88;;;4.15;;
32788;SDS011;19141;48.980;8.410;2023-07-09T16:05:26;5.07;;;3.07;;
32788;SDS011;19141;48.980;8.410;2023-07-09T16:07:54;6.35;;;3.25;;
32788;SDS011;19141;48.980;8.410;2023-07-09T16:10:22;6.60;;;3.40;;
32788;SDS011;19141;48.980;8.410;2023-07-09T16:12:49;5.43;;;3.30;;
32788;SDS011;19141;48.980;8.410;2023-07-09T16:15:16;5.50;;;2.95;;
32788;SDS011;19141;48.980;8.410;2023-07-09T16:17:44;8.63;;;3.47;;
32788;SDS011;19141;48.980;8.410;2023-07-09T16:20:12;8.00;;;4.00;;
32788;SDS011;19141;48.980;8.410;2023-07-09T16:22:39;5.80;;;3.72;;
32788;SDS011;19141;48.980;8.410;2023-07-09T16:25:13;6.18;;;3.53;;
32788;SDS011;19141;48.980;8.410;2023-07-09T16:27:41;7.15;;;4.22;;
32788;SDS011;19141;48.980;8.410;2023-07-09T16:30:10;8.13;;;3.83;;
32788;SDS011;19141;48.980;8.410;2023-07-09T16:32:57;6.88;;;3.70;;
32788;SDS011;19141;48.980;8.410;2023-07-09T16:35:24;6.93;;;4.05;;
32788;SDS011;19141;48.980;8.410;2023-07-09T16:37:51;6.53;;;3.42;;
32788;SDS011;19141;48.980;8.410;2023-07-09T16:40:17;7.00;;;3.80;;
32788;SDS011;19141;48.980;8.410;2023-07-09T16:42:46;8.30;;;4.07;;
32788;SDS011;19141;48.980;8.410;2023-07-09T16:45:13;7.20;;;3.25;;
32788;SDS011;19141;48.980;8.410;2023-07-09T16:47:40;6.10;;;3.75;;
32788;SDS011;19141;48.980;8.410;2023-07-09T16:50:10;7.10;;;3.95;;
32788;SDS011;19141;48.980;8.410;2023-07-09T16:52:42;5.57;;;3.63;;
32788;SDS011;19141;48.980;8.410;2023-07-09T16:55:08;5.97;;;3.75;;
32788;SDS011;19141;48.980;8.410;2023-07-09T16:57:38;7.47;;;3.65;;
32788;SDS011;19141;48.980;8.410;2023-07-09T17:00:20;8.33;;;3.47;;
32788;SDS011;19141;48.980;8.410;2023-07-09T17:02:52;6.85;;;3.92;;
32788;SDS011;19141;48.980;8.410;2023-07-09T17:05:17;8.40;;;4.10;;
32788;SDS011;19141;48.980;8.410;2023-07-09T17:07:43;11.07;;;6.10;;
32788;SDS011;19141;48.980;8.410;2023-07-09T17:10:10;14.33;;;7.77;;
32788;SDS011;19141;48.980;8.410;2023-07-09T17:12:37;14.48;;;7.00;;
32788;SDS011;19141;48.980;8.410;2023-07-09T17:15:45;10.32;;;6.72;;
32788;SDS011;19141;48.980;8.410;2023-07-09T17:18:01;10.82;;;5.53;;
32788;SDS011;19141;48.980;8.410;2023-07-09T17:20:30;11.20;;;5.85;;
32788;SDS011;19141;48.980;8.410;2023-07-09T17:22:56;9.37;;;6.03;;
32788;SDS011;19141;48.980;8.410;2023-07-09T17:25:27;8.77;;;5.45;;
32788;SDS011;19141;48.980;8.410;2023-07-09T17:27:56;7.95;;;5.35;;
32788;SDS011;19141;48.980;8.410;2023-07-09T17:30:23;9.65;;;4.65;;
32788;SDS011;19141;48.980;8.410;2023-07-09T17:32:49;10.55;;;5.57;;
32788;SDS011;19141;48.980;8.410;2023-07-09T17:35:14;12.10;;;8.13;;
32788;SDS011;19141;48.980;8.410;2023-07-09T17:37:41;11.70;;;4.83;;
32788;SDS011;19141;48.980;8.410;2023-07-09T17:40:13;10.60;;;5.53;;
32788;SDS011;19141;48.980;8.410;2023-07-09T17:42:42;10.10;;;5.88;;
32788;SDS011;19141;48.980;8.410;2023-07-09T17:45:10;8.87;;;6.37;;
32788;SDS011;19141;48.980;8.410;2023-07-09T17:47:36;17.08;;;10.50;;
32788;SDS011;19141;48.980;8.410;2023-07-09T17:50:04;14.47;;;9.93;;
32788;SDS011;19141;48.980;8.410;2023-07-09T17:52:37;16.77;;;8.52;;
32788;SDS011;19141;48.980;8.410;2023-07-09T17:55:03;11.63;;;7.93;;
32788;SDS011;19141;48.980;8.410;2023-07-09T17:57:28;10.07;;;5.50;;
32788;SDS011;19141;48.980;8.410;2023-07-09T17:59:54;9.80;;;5.60;;
32788;SDS011;19141;48.980;8.410;2023-07-09T18:02:28;14.63;;;8.13;;
32788;SDS011;19141;48.980;8.410;2023-07-09T18:04:57;11.75;;;7.13;;
32788;SDS011;19141;48.980;8.410;2023-07-09T18:09:50;9.40;;;4.93;;
32788;SDS011;19141;48.980;8.410;2023-07-09T18:12:18;7.75;;;4.18;;
32788;SDS011;19141;48.980;8.410;2023-07-09T18:14:54;8.30;;;4.53;;
32788;SDS011;19141;48.980;8.410;2023-07-09T18:17:30;8.90;;;5.80;;
32788;SDS011;19141;48.980;8.410;2023-07-09T18:19:57;6.05;;;4.80;;
32788;SDS011;19141;48.980;8.410;2023-07-09T18:22:23;7.10;;;4.50;;
32788;SDS011;19141;48.980;8.410;2023-07-09T18:24:49;9.40;;;5.72;;
32788;SDS011;19141;48.980;8.410;2023-07-09T18:27:16;10.20;;;5.57;;
32788;SDS011;19141;48.980;8.410;2023-07-09T18:29:50;12.77;;;5.68;;
32788;SDS011;19141;48.980;8.410;2023-07-09T18:32:18;10.88;;;5.00;;
32788;SDS011;19141;48.980;8.410;2023-07-09T18:34:46;7.47;;;4.35;;
32788;SDS011;19141;48.980;8.410;2023-07-09T18:37:13;8.35;;;4.80;;
32788;SDS011;19141;48.980;8.410;2023-07-09T18:39:41;8.90;;;4.55;;
32788;SDS011;19141;48.980;8.410;2023-07-09T18:42:13;8.48;;;4.65;;
32788;SDS011;19141;48.980;8.410;2023-07-09T18:44:40;6.82;;;4.20;;
32788;SDS011;19141;48.980;8.410;2023-07-09T18:47:13;7.60;;;4.45;;
32788;SDS011;19141;48.980;8.410;2023-07-09T18:49:41;9.52;;;5.13;;
32788;SDS011;19141;48.980;8.410;2023-07-09T18:52:11;7.07;;;4.65;;
32788;SDS011;19141;48.980;8.410;2023-07-09T18:54:39;7.57;;;5.35;;
32788;SDS011;19141;48.980;8.410;2023-07-09T18:57:08;11.45;;;5.00;;
32788;SDS011;19141;48.980;8.410;2023-07-09T18:59:35;8.35;;;5.18;;
32788;SDS011;19141;48.980;8.410;2023-07-09T19:02:01;9.43;;;5.53;;
32788;SDS011;19141;48.980;8.410;2023-07-09T19:04:27;8.17;;;4.87;;
32788;SDS011;19141;48.980;8.410;2023-07-09T19:06:55;6.22;;;4.38;;
32788;SDS011;19141;48.980;8.410;2023-07-09T19:09:22;8.40;;;5.38;;
32788;SDS011;19141;48.980;8.410;2023-07-09T19:11:49;9.52;;;5.15;;
32788;SDS011;19141;48.980;8.410;2023-07-09T19:14:18;14.02;;;8.95;;
32788;SDS011;19141;48.980;8.410;2023-07-09T19:16:46;8.10;;;5.32;;
32788;SDS011;19141;48.980;8.410;2023-07-09T19:19:14;10.50;;;4.60;;
32788;SDS011;19141;48.980;8.410;2023-07-09T19:21:44;7.68;;;4.28;;
32788;SDS011;19141;48.980;8.410;2023-07-09T19:24:18;9.18;;;5.40;;
32788;SDS011;19141;48.980;8.410;2023-07-09T19:26:45;7.10;;;4.95;;
32788;SDS011;19141;48.980;8.410;2023-07-09T19:29:11;8.43;;;6.10;;
32788;SDS011;19141;48.980;8.410;2023-07-09T19:31:37;6.85;;;4.30;;
32788;SDS011;19141;48.980;8.410;2023-07-09T19:34:04;9.13;;;5.28;;
32788;SDS011;19141;48.980;8.410;2023-07-09T19:36:30;9.45;;;6.05;;
32788;SDS011;19141;48.980;8.410;2023-07-09T19:38:55;5.70;;;4.25;;
32788;SDS011;19141;48.980;8.410;2023-07-09T19:41:21;7.25;;;4.60;;
32788;SDS011;19141;48.980;8.410;2023-07-09T19:43:48;7.45;;;4.85;;
32788;SDS011;19141;48.980;8.410;2023-07-09T19:46:18;9.02;;;5.03;;
32788;SDS011;19141;48.980;8.410;2023-07-09T19:48:46;9.18;;;5.35;;
32788;SDS011;19141;48.980;8.410;2023-07-09T19:51:11;5.85;;;4.60;;
32788;SDS011;19141;48.980;8.410;2023-07-09T19:53:38;9.20;;;4.45;;
32788;SDS011;19141;48.980;8.410;2023-07-09T19:56:04;7.83;;;4.20;;
32788;SDS011;19141;48.980;8.410;2023-07-09T19:58:29;7.15;;;4.20;;
32788;SDS011;19141;48.980;8.410;2023-07-09T20:00:55;8.63;;;4.20;;